Terminal Aerodrome Forecast
Issued by NWS Austin/San Antonio, TX

Home | Current Version | Previous Version | Text Only | Print | Product List | Glossary On
Versions: 1 2 3 4 5 6 7 8 9 10 11 12 13 14 15 16 17 18 19 20 21 22 23 24 25
000
FTUS44 KEWX 261734
TAFAUS
TAF
KAUS 261734Z 2618/2724 10010KT P6SM VCSH SCT035 BKN050
      TEMPO 2618/2620 5SM SHRA BKN035
     FM270300 04005KT P6SM OVC050
     FM270800 03002KT P6SM VCSH OVC025
     FM271300 00000KT P6SM VCSH OVC015=

USA.gov is the U.S. government's official web portal to all federal, state and local government web resources and services.